sensor_id;sensor_type;location;lat;lon;timestamp;P1;durP1;ratioP1;P2;durP2;ratioP2
25525;SDS011;13424;48.424;11.258;2022-09-14T00:02:08;6.28;;;5.72;;
25525;SDS011;13424;48.424;11.258;2022-09-14T00:04:34;8.50;;;6.40;;
25525;SDS011;13424;48.424;11.258;2022-09-14T00:07:01;6.15;;;5.57;;
25525;SDS011;13424;48.424;11.258;2022-09-14T00:09:27;7.28;;;6.43;;
25525;SDS011;13424;48.424;11.258;2022-09-14T00:15:10;6.93;;;6.32;;
25525;SDS011;13424;48.424;11.258;2022-09-14T00:17:36;7.00;;;6.13;;
25525;SDS011;13424;48.424;11.258;2022-09-14T00:20:02;6.78;;;6.10;;
25525;SDS011;13424;48.424;11.258;2022-09-14T00:22:29;8.98;;;6.57;;
25525;SDS011;13424;48.424;11.258;2022-09-14T00:24:55;8.52;;;6.47;;
25525;SDS011;13424;48.424;11.258;2022-09-14T00:27:21;7.03;;;6.32;;
25525;SDS011;13424;48.424;11.258;2022-09-14T00:29:47;6.75;;;6.10;;
25525;SDS011;13424;48.424;11.258;2022-09-14T00:36:17;10.00;;;8.40;;
25525;SDS011;13424;48.424;11.258;2022-09-14T00:38:46;7.90;;;7.10;;
25525;SDS011;13424;48.424;11.258;2022-09-14T00:41:15;9.48;;;7.05;;
25525;SDS011;13424;48.424;11.258;2022-09-14T00:46:47;10.15;;;8.05;;
25525;SDS011;13424;48.424;11.258;2022-09-14T00:49:19;8.35;;;7.60;;
25525;SDS011;13424;48.424;11.258;2022-09-14T00:52:08;9.68;;;7.97;;
25525;SDS011;13424;48.424;11.258;2022-09-14T00:54:54;10.00;;;8.07;;
25525;SDS011;13424;48.424;11.258;2022-09-14T00:57:26;8.35;;;7.50;;
25525;SDS011;13424;48.424;11.258;2022-09-14T00:59:58;8.30;;;7.50;;
25525;SDS011;13424;48.424;11.258;2022-09-14T01:02:25;9.50;;;7.45;;
25525;SDS011;13424;48.424;11.258;2022-09-14T01:04:52;11.77;;;8.02;;
25525;SDS011;13424;48.424;11.258;2022-09-14T01:13:31;10.60;;;7.28;;
25525;SDS011;13424;48.424;11.258;2022-09-14T01:19:00;8.65;;;7.75;;
25525;SDS011;13424;48.424;11.258;2022-09-14T01:21:46;11.15;;;7.63;;
25525;SDS011;13424;48.424;11.258;2022-09-14T01:30:17;7.75;;;6.63;;
25525;SDS011;13424;48.424;11.258;2022-09-14T01:32:50;10.15;;;7.57;;
25525;SDS011;13424;48.424;11.258;2022-09-14T01:35:30;9.75;;;7.90;;
25525;SDS011;13424;48.424;11.258;2022-09-14T01:40:53;8.25;;;7.45;;
25525;SDS011;13424;48.424;11.258;2022-09-14T01:43:30;10.88;;;7.32;;
25525;SDS011;13424;48.424;11.258;2022-09-14T01:46:11;8.63;;;7.50;;
25525;SDS011;13424;48.424;11.258;2022-09-14T01:48:50;9.55;;;7.97;;
25525;SDS011;13424;48.424;11.258;2022-09-14T01:51:47;10.23;;;8.77;;
25525;SDS011;13424;48.424;11.258;2022-09-14T01:57:01;8.80;;;7.93;;
25525;SDS011;13424;48.424;11.258;2022-09-14T02:04:06;9.10;;;8.20;;
25525;SDS011;13424;48.424;11.258;2022-09-14T02:06:45;10.02;;;7.60;;
25525;SDS011;13424;48.424;11.258;2022-09-14T02:09:16;9.30;;;8.32;;
25525;SDS011;13424;48.424;11.258;2022-09-14T02:11:46;11.32;;;8.40;;
25525;SDS011;13424;48.424;11.258;2022-09-14T02:14:13;11.45;;;8.55;;
25525;SDS011;13424;48.424;11.258;2022-09-14T02:16:39;9.02;;;8.13;;
25525;SDS011;13424;48.424;11.258;2022-09-14T02:19:08;9.32;;;8.35;;
25525;SDS011;13424;48.424;11.258;2022-09-14T02:21:34;11.35;;;8.95;;
25525;SDS011;13424;48.424;11.258;2022-09-14T02:24:02;11.32;;;8.85;;
25525;SDS011;13424;48.424;11.258;2022-09-14T02:26:28;15.18;;;8.75;;
25525;SDS011;13424;48.424;11.258;2022-09-14T02:28:55;10.95;;;9.10;;
25525;SDS011;13424;48.424;11.258;2022-09-14T02:38:21;12.98;;;9.05;;
25525;SDS011;13424;48.424;11.258;2022-09-14T02:41:22;12.02;;;8.50;;
25525;SDS011;13424;48.424;11.258;2022-09-14T02:44:23;12.43;;;8.43;;
25525;SDS011;13424;48.424;11.258;2022-09-14T02:47:25;11.35;;;8.98;;
25525;SDS011;13424;48.424;11.258;2022-09-14T02:50:33;9.20;;;8.23;;
25525;SDS011;13424;48.424;11.258;2022-09-14T02:53:29;9.50;;;8.40;;
25525;SDS011;13424;48.424;11.258;2022-09-14T02:56:11;11.20;;;7.97;;
25525;SDS011;13424;48.424;11.258;2022-09-14T02:58:40;9.55;;;8.13;;
25525;SDS011;13424;48.424;11.258;2022-09-14T03:01:11;7.85;;;7.13;;
25525;SDS011;13424;48.424;11.258;2022-09-14T03:03:43;7.55;;;6.75;;
25525;SDS011;13424;48.424;11.258;2022-09-14T03:06:10;8.80;;;7.93;;
25525;SDS011;13424;48.424;11.258;2022-09-14T03:09:02;7.75;;;6.90;;
25525;SDS011;13424;48.424;11.258;2022-09-14T03:11:28;11.63;;;7.50;;
25525;SDS011;13424;48.424;11.258;2022-09-14T03:13:54;10.00;;;6.88;;
25525;SDS011;13424;48.424;11.258;2022-09-14T03:16:20;8.95;;;6.70;;
25525;SDS011;13424;48.424;11.258;2022-09-14T03:18:46;7.18;;;6.25;;
25525;SDS011;13424;48.424;11.258;2022-09-14T03:21:14;7.85;;;7.13;;
25525;SDS011;13424;48.424;11.258;2022-09-14T03:23:51;10.25;;;6.95;;
25525;SDS011;13424;48.424;11.258;2022-09-14T03:26:20;7.72;;;6.30;;
25525;SDS011;13424;48.424;11.258;2022-09-14T03:28:50;6.65;;;5.85;;
25525;SDS011;13424;48.424;11.258;2022-09-14T03:31:25;7.20;;;5.55;;
25525;SDS011;13424;48.424;11.258;2022-09-14T03:34:01;7.32;;;5.25;;
25525;SDS011;13424;48.424;11.258;2022-09-14T03:36:29;6.97;;;5.50;;
25525;SDS011;13424;48.424;11.258;2022-09-14T03:39:07;8.38;;;5.75;;
25525;SDS011;13424;48.424;11.258;2022-09-14T03:41:33;6.18;;;5.68;;
25525;SDS011;13424;48.424;11.258;2022-09-14T03:44:02;7.68;;;6.25;;
25525;SDS011;13424;48.424;11.258;2022-09-14T03:46:28;8.75;;;6.72;;
25525;SDS011;13424;48.424;11.258;2022-09-14T03:48:54;11.40;;;6.60;;
25525;SDS011;13424;48.424;11.258;2022-09-14T03:51:20;6.93;;;6.32;;
25525;SDS011;13424;48.424;11.258;2022-09-14T03:53:54;8.90;;;8.00;;
25525;SDS011;13424;48.424;11.258;2022-09-14T03:56:21;8.50;;;7.57;;
25525;SDS011;13424;48.424;11.258;2022-09-14T03:58:48;8.45;;;6.80;;
25525;SDS011;13424;48.424;11.258;2022-09-14T04:01:17;8.40;;;7.13;;
25525;SDS011;13424;48.424;11.258;2022-09-14T04:03:46;8.40;;;7.35;;
25525;SDS011;13424;48.424;11.258;2022-09-14T04:06:13;7.55;;;6.82;;
25525;SDS011;13424;48.424;11.258;2022-09-14T04:08:40;8.60;;;7.57;;
25525;SDS011;13424;48.424;11.258;2022-09-14T04:11:18;9.63;;;7.35;;
25525;SDS011;13424;48.424;11.258;2022-09-14T04:13:47;8.73;;;7.43;;
25525;SDS011;13424;48.424;11.258;2022-09-14T04:16:14;9.07;;;8.20;;
25525;SDS011;13424;48.424;11.258;2022-09-14T04:18:42;8.65;;;7.75;;
25525;SDS011;13424;48.424;11.258;2022-09-14T04:21:16;8.88;;;8.00;;
25525;SDS011;13424;48.424;11.258;2022-09-14T04:23:46;10.18;;;7.50;;
25525;SDS011;13424;48.424;11.258;2022-09-14T04:26:15;6.68;;;6.07;;
25525;SDS011;13424;48.424;11.258;2022-09-14T04:28:44;6.50;;;5.90;;
25525;SDS011;13424;48.424;11.258;2022-09-14T04:31:10;7.07;;;6.38;;
25525;SDS011;13424;48.424;11.258;2022-09-14T04:33:38;8.32;;;7.20;;
25525;SDS011;13424;48.424;11.258;2022-09-14T04:36:20;10.40;;;7.47;;
25525;SDS011;13424;48.424;11.258;2022-09-14T04:38:52;9.15;;;8.25;;
25525;SDS011;13424;48.424;11.258;2022-09-14T04:41:20;10.02;;;7.68;;
25525;SDS011;13424;48.424;11.258;2022-09-14T04:43:47;8.68;;;6.78;;
25525;SDS011;13424;48.424;11.258;2022-09-14T04:50:06;9.63;;;8.43;;
25525;SDS011;13424;48.424;11.258;2022-09-14T04:56:57;10.82;;;6.63;;
25525;SDS011;13424;48.424;11.258;2022-09-14T04:59:23;7.72;;;7.00;;
25525;SDS011;13424;48.424;11.258;2022-09-14T05:01:49;7.13;;;6.50;;
25525;SDS011;13424;48.424;11.258;2022-09-14T05:04:15;7.15;;;6.45;;
25525;SDS011;13424;48.424;11.258;2022-09-14T05:06:50;9.15;;;6.32;;
25525;SDS011;13424;48.424;11.258;2022-09-14T05:09:17;7.35;;;6.43;;
25525;SDS011;13424;48.424;11.258;2022-09-14T05:11:43;8.50;;;7.68;;
25525;SDS011;13424;48.424;11.258;2022-09-14T05:14:11;7.35;;;6.65;;
25525;SDS011;13424;48.424;11.258;2022-09-14T05:16:39;8.55;;;7.18;;
25525;SDS011;13424;48.424;11.258;2022-09-14T05:19:09;17.73;;;11.52;;
25525;SDS011;13424;48.424;11.258;2022-09-14T05:21:41;10.30;;;9.18;;
25525;SDS011;13424;48.424;11.258;2022-09-14T05:24:13;10.85;;;8.65;;
25525;SDS011;13424;48.424;11.258;2022-09-14T05:26:42;12.68;;;9.55;;
25525;SDS011;13424;48.424;11.258;2022-09-14T05:29:14;11.85;;;9.27;;
25525;SDS011;13424;48.424;11.258;2022-09-14T05:31:43;9.50;;;8.60;;
25525;SDS011;13424;48.424;11.258;2022-09-14T05:34:10;9.63;;;7.70;;
25525;SDS011;13424;48.424;11.258;2022-09-14T05:36:37;14.95;;;12.52;;
25525;SDS011;13424;48.424;11.258;2022-09-14T05:39:05;13.13;;;11.15;;
25525;SDS011;13424;48.424;11.258;2022-09-14T05:41:32;12.48;;;9.88;;
25525;SDS011;13424;48.424;11.258;2022-09-14T05:44:04;10.63;;;8.68;;
25525;SDS011;13424;48.424;11.258;2022-09-14T05:46:31;11.10;;;9.52;;
25525;SDS011;13424;48.424;11.258;2022-09-14T05:48:57;10.15;;;9.02;;
25525;SDS011;13424;48.424;11.258;2022-09-14T05:51:24;7.93;;;7.22;;
25525;SDS011;13424;48.424;11.258;2022-09-14T05:53:56;8.95;;;8.05;;
25525;SDS011;13424;48.424;11.258;2022-09-14T05:56:27;7.65;;;6.93;;
25525;SDS011;13424;48.424;11.258;2022-09-14T05:58:55;7.68;;;6.80;;
25525;SDS011;13424;48.424;11.258;2022-09-14T06:01:27;8.48;;;7.43;;
25525;SDS011;13424;48.424;11.258;2022-09-14T06:03:57;7.63;;;6.85;;
25525;SDS011;13424;48.424;11.258;2022-09-14T06:06:26;7.93;;;6.70;;
25525;SDS011;13424;48.424;11.258;2022-09-14T06:08:54;7.80;;;6.53;;
25525;SDS011;13424;48.424;11.258;2022-09-14T06:11:32;7.78;;;6.97;;
25525;SDS011;13424;48.424;11.258;2022-09-14T06:14:00;8.70;;;7.10;;
25525;SDS011;13424;48.424;11.258;2022-09-14T06:16:27;7.15;;;6.53;;
25525;SDS011;13424;48.424;11.258;2022-09-14T06:23:18;7.90;;;5.30;;
25525;SDS011;13424;48.424;11.258;2022-09-14T06:25:44;5.93;;;4.53;;
25525;SDS011;13424;48.424;11.258;2022-09-14T06:28:10;5.00;;;4.60;;
25525;SDS011;13424;48.424;11.258;2022-09-14T06:30:36;4.68;;;4.22;;
25525;SDS011;13424;48.424;11.258;2022-09-14T06:33:06;5.43;;;4.63;;
25525;SDS011;13424;48.424;11.258;2022-09-14T06:35:32;5.13;;;4.13;;
25525;SDS011;13424;48.424;11.258;2022-09-14T06:37:58;6.40;;;4.03;;
25525;SDS011;13424;48.424;11.258;2022-09-14T06:40:24;7.57;;;3.90;;
25525;SDS011;13424;48.424;11.258;2022-09-14T06:42:51;4.60;;;3.88;;
25525;SDS011;13424;48.424;11.258;2022-09-14T06:45:17;7.70;;;4.63;;
25525;SDS011;13424;48.424;11.258;2022-09-14T06:47:43;5.38;;;4.45;;
25525;SDS011;13424;48.424;11.258;2022-09-14T06:50:09;6.13;;;4.15;;
25525;SDS011;13424;48.424;11.258;2022-09-14T06:52:38;7.68;;;4.47;;
25525;SDS011;13424;48.424;11.258;2022-09-14T06:55:05;6.38;;;4.57;;
25525;SDS011;13424;48.424;11.258;2022-09-14T06:57:31;4.80;;;4.10;;
25525;SDS011;13424;48.424;11.258;2022-09-14T07:04:22;6.15;;;4.30;;
25525;SDS011;13424;48.424;11.258;2022-09-14T07:06:49;7.18;;;4.90;;
25525;SDS011;13424;48.424;11.258;2022-09-14T07:09:22;6.03;;;5.38;;
25525;SDS011;13424;48.424;11.258;2022-09-14T07:11:49;5.38;;;4.82;;
25525;SDS011;13424;48.424;11.258;2022-09-14T07:14:24;5.57;;;4.90;;
25525;SDS011;13424;48.424;11.258;2022-09-14T07:16:50;4.65;;;4.25;;
25525;SDS011;13424;48.424;11.258;2022-09-14T07:19:16;6.35;;;4.55;;
25525;SDS011;13424;48.424;11.258;2022-09-14T07:21:42;8.27;;;4.35;;
25525;SDS011;13424;48.424;11.258;2022-09-14T07:24:08;6.15;;;4.47;;
25525;SDS011;13424;48.424;11.258;2022-09-14T07:26:38;6.68;;;4.40;;
25525;SDS011;13424;48.424;11.258;2022-09-14T07:29:19;5.38;;;4.15;;
25525;SDS011;13424;48.424;11.258;2022-09-14T07:31:51;5.40;;;4.03;;
25525;SDS011;13424;48.424;11.258;2022-09-14T07:34:20;4.68;;;4.15;;
25525;SDS011;13424;48.424;11.258;2022-09-14T07:36:48;5.65;;;3.85;;
25525;SDS011;13424;48.424;11.258;2022-09-14T07:39:15;6.13;;;3.63;;
25525;SDS011;13424;48.424;11.258;2022-09-14T07:41:42;6.40;;;3.40;;
25525;SDS011;13424;48.424;11.258;2022-09-14T07:44:42;3.40;;;3.08;;
25525;SDS011;13424;48.424;11.258;2022-09-14T07:47:11;8.23;;;4.15;;
25525;SDS011;13424;48.424;11.258;2022-09-14T07:49:37;6.32;;;3.50;;
25525;SDS011;13424;48.424;11.258;2022-09-14T07:52:03;4.75;;;3.33;;
25525;SDS011;13424;48.424;11.258;2022-09-14T07:54:29;7.05;;;3.60;;
25525;SDS011;13424;48.424;11.258;2022-09-14T08:00:21;4.10;;;3.10;;
25525;SDS011;13424;48.424;11.258;2022-09-14T08:02:51;7.80;;;3.67;;
25525;SDS011;13424;48.424;11.258;2022-09-14T08:05:18;5.00;;;3.47;;
25525;SDS011;13424;48.424;11.258;2022-09-14T08:07:45;6.68;;;4.03;;
25525;SDS011;13424;48.424;11.258;2022-09-14T08:10:12;4.18;;;3.58;;
25525;SDS011;13424;48.424;11.258;2022-09-14T08:12:38;4.63;;;3.15;;
25525;SDS011;13424;48.424;11.258;2022-09-14T08:15:04;4.65;;;3.60;;
25525;SDS011;13424;48.424;11.258;2022-09-14T08:17:31;7.45;;;3.53;;
25525;SDS011;13424;48.424;11.258;2022-09-14T08:19:57;6.18;;;3.67;;
25525;SDS011;13424;48.424;11.258;2022-09-14T08:22:24;6.53;;;3.63;;
25525;SDS011;13424;48.424;11.258;2022-09-14T08:24:51;6.00;;;3.42;;
25525;SDS011;13424;48.424;11.258;2022-09-14T08:27:17;8.07;;;3.60;;
25525;SDS011;13424;48.424;11.258;2022-09-14T08:32:53;8.07;;;5.25;;
25525;SDS011;13424;48.424;11.258;2022-09-14T08:35:20;4.97;;;3.38;;
25525;SDS011;13424;48.424;11.258;2022-09-14T08:37:49;5.88;;;3.40;;
25525;SDS011;13424;48.424;11.258;2022-09-14T08:40:15;4.90;;;4.20;;
25525;SDS011;13424;48.424;11.258;2022-09-14T08:42:43;4.72;;;3.17;;
25525;SDS011;13424;48.424;11.258;2022-09-14T08:45:15;3.92;;;3.42;;
25525;SDS011;13424;48.424;11.258;2022-09-14T08:47:42;5.13;;;3.30;;
25525;SDS011;13424;48.424;11.258;2022-09-14T09:08:24;4.18;;;3.10;;
25525;SDS011;13424;48.424;11.258;2022-09-14T09:11:02;6.85;;;3.42;;
25525;SDS011;13424;48.424;11.258;2022-09-14T09:13:34;7.10;;;3.47;;
25525;SDS011;13424;48.424;11.258;2022-09-14T09:16:06;6.95;;;3.45;;
25525;SDS011;13424;48.424;11.258;2022-09-14T09:18:41;5.05;;;2.53;;
25525;SDS011;13424;48.424;11.258;2022-09-14T09:21:32;6.45;;;3.10;;
25525;SDS011;13424;48.424;11.258;2022-09-14T09:30:36;7.32;;;3.05;;
25525;SDS011;13424;48.424;11.258;2022-09-14T09:33:04;8.98;;;2.88;;
25525;SDS011;13424;48.424;11.258;2022-09-14T09:36:06;5.45;;;3.10;;
25525;SDS011;13424;48.424;11.258;2022-09-14T09:38:37;3.58;;;2.80;;
25525;SDS011;13424;48.424;11.258;2022-09-14T09:44:06;9.73;;;3.47;;
25525;SDS011;13424;48.424;11.258;2022-09-14T09:46:57;5.93;;;3.25;;
25525;SDS011;13424;48.424;11.258;2022-09-14T09:49:36;3.63;;;3.30;;
25525;SDS011;13424;48.424;11.258;2022-09-14T09:52:14;6.43;;;3.28;;
25525;SDS011;13424;48.424;11.258;2022-09-14T09:54:47;5.13;;;3.10;;
25525;SDS011;13424;48.424;11.258;2022-09-14T09:57:35;4.97;;;3.70;;
25525;SDS011;13424;48.424;11.258;2022-09-14T10:00:17;3.75;;;3.13;;
25525;SDS011;13424;48.424;11.258;2022-09-14T10:02:49;6.95;;;3.22;;
25525;SDS011;13424;48.424;11.258;2022-09-14T10:16:16;8.15;;;3.30;;
25525;SDS011;13424;48.424;11.258;2022-09-14T10:18:48;4.20;;;2.88;;
25525;SDS011;13424;48.424;11.258;2022-09-14T10:21:18;3.67;;;3.08;;
25525;SDS011;13424;48.424;11.258;2022-09-14T10:23:46;5.45;;;2.60;;
25525;SDS011;13424;48.424;11.258;2022-09-14T10:26:32;3.30;;;2.80;;
25525;SDS011;13424;48.424;11.258;2022-09-14T10:29:25;6.88;;;2.63;;
25525;SDS011;13424;48.424;11.258;2022-09-14T10:32:04;7.13;;;3.20;;
25525;SDS011;13424;48.424;11.258;2022-09-14T10:34:54;8.10;;;2.88;;
25525;SDS011;13424;48.424;11.258;2022-09-14T10:37:43;6.78;;;3.00;;
25525;SDS011;13424;48.424;11.258;2022-09-14T10:40:36;4.20;;;2.70;;
25525;SDS011;13424;48.424;11.258;2022-09-14T10:43:19;6.78;;;3.08;;
25525;SDS011;13424;48.424;11.258;2022-09-14T10:46:12;7.25;;;3.00;;
25525;SDS011;13424;48.424;11.258;2022-09-14T10:49:10;2.97;;;2.75;;
25525;SDS011;13424;48.424;11.258;2022-09-14T10:52:04;3.63;;;2.45;;
25525;SDS011;13424;48.424;11.258;2022-09-14T11:01:14;5.22;;;3.17;;
25525;SDS011;13424;48.424;11.258;2022-09-14T11:13:17;6.60;;;3.28;;
25525;SDS011;13424;48.424;11.258;2022-09-14T11:19:22;8.05;;;3.00;;
25525;SDS011;13424;48.424;11.258;2022-09-14T11:28:56;3.42;;;2.47;;
25525;SDS011;13424;48.424;11.258;2022-09-14T11:31:28;5.20;;;2.95;;
25525;SDS011;13424;48.424;11.258;2022-09-14T11:34:20;3.88;;;2.85;;
25525;SDS011;13424;48.424;11.258;2022-09-14T11:36:58;5.25;;;3.10;;
25525;SDS011;13424;48.424;11.258;2022-09-14T11:44:19;4.30;;;3.15;;
25525;SDS011;13424;48.424;11.258;2022-09-14T11:47:06;3.70;;;2.90;;
25525;SDS011;13424;48.424;11.258;2022-09-14T11:53:30;5.00;;;3.17;;
25525;SDS011;13424;48.424;11.258;2022-09-14T11:55:58;3.60;;;2.67;;
25525;SDS011;13424;48.424;11.258;2022-09-14T11:58:26;5.80;;;2.92;;
25525;SDS011;13424;48.424;11.258;2022-09-14T12:01:01;4.90;;;2.70;;
25525;SDS011;13424;48.424;11.258;2022-09-14T12:12:25;5.03;;;3.30;;
25525;SDS011;13424;48.424;11.258;2022-09-14T12:14:58;6.85;;;2.92;;
25525;SDS011;13424;48.424;11.258;2022-09-14T12:17:27;13.32;;;3.20;;
25525;SDS011;13424;48.424;11.258;2022-09-14T12:23:16;5.47;;;3.00;;
25525;SDS011;13424;48.424;11.258;2022-09-14T12:28:49;4.70;;;2.75;;
25525;SDS011;13424;48.424;11.258;2022-09-14T12:31:35;7.30;;;3.42;;
25525;SDS011;13424;48.424;11.258;2022-09-14T12:34:21;3.15;;;2.92;;
25525;SDS011;13424;48.424;11.258;2022-09-14T12:39:30;8.73;;;3.90;;
25525;SDS011;13424;48.424;11.258;2022-09-14T12:42:25;5.60;;;3.20;;
25525;SDS011;13424;48.424;11.258;2022-09-14T12:44:56;9.20;;;4.15;;
25525;SDS011;13424;48.424;11.258;2022-09-14T12:50:03;6.10;;;3.40;;
25525;SDS011;13424;48.424;11.258;2022-09-14T12:53:05;7.13;;;3.25;;
25525;SDS011;13424;48.424;11.258;2022-09-14T12:55:57;7.18;;;3.55;;
25525;SDS011;13424;48.424;11.258;2022-09-14T12:58:39;6.45;;;3.15;;
25525;SDS011;13424;48.424;11.258;2022-09-14T13:04:03;7.57;;;4.30;;
25525;SDS011;13424;48.424;11.258;2022-09-14T13:06:41;6.53;;;3.28;;
25525;SDS011;13424;48.424;11.258;2022-09-14T13:09:22;5.43;;;4.07;;
25525;SDS011;13424;48.424;11.258;2022-09-14T13:15:20;6.43;;;3.38;;
25525;SDS011;13424;48.424;11.258;2022-09-14T13:17:55;6.93;;;4.40;;
25525;SDS011;13424;48.424;11.258;2022-09-14T13:20:26;4.97;;;3.33;;
25525;SDS011;13424;48.424;11.258;2022-09-14T13:22:55;9.57;;;3.25;;
25525;SDS011;13424;48.424;11.258;2022-09-14T13:25:31;7.82;;;3.78;;
25525;SDS011;13424;48.424;11.258;2022-09-14T13:28:03;5.57;;;3.70;;
25525;SDS011;13424;48.424;11.258;2022-09-14T13:30:33;5.47;;;3.60;;
25525;SDS011;13424;48.424;11.258;2022-09-14T13:33:00;4.60;;;3.42;;
25525;SDS011;13424;48.424;11.258;2022-09-14T13:35:52;5.70;;;2.65;;
25525;SDS011;13424;48.424;11.258;2022-09-14T13:38:23;7.40;;;3.28;;
25525;SDS011;13424;48.424;11.258;2022-09-14T13:41:07;7.38;;;3.42;;
25525;SDS011;13424;48.424;11.258;2022-09-14T13:43:39;3.50;;;2.85;;
25525;SDS011;13424;48.424;11.258;2022-09-14T13:46:07;7.97;;;3.15;;
25525;SDS011;13424;48.424;11.258;2022-09-14T14:00:59;10.48;;;3.60;;
25525;SDS011;13424;48.424;11.258;2022-09-14T14:12:19;7.03;;;3.22;;
25525;SDS011;13424;48.424;11.258;2022-09-14T14:14:23;5.43;;;3.33;;
25525;SDS011;13424;48.424;11.258;2022-09-14T14:19:39;5.15;;;3.53;;
25525;SDS011;13424;48.424;11.258;2022-09-14T14:22:16;5.18;;;3.25;;
25525;SDS011;13424;48.424;11.258;2022-09-14T14:24:48;11.38;;;3.90;;
25525;SDS011;13424;48.424;11.258;2022-09-14T14:27:31;7.03;;;1.23;;
25525;SDS011;13424;48.424;11.258;2022-09-14T14:30:01;1.33;;;0.90;;
25525;SDS011;13424;48.424;11.258;2022-09-14T14:32:39;2.80;;;1.00;;
25525;SDS011;13424;48.424;11.258;2022-09-14T14:35:11;6.72;;;1.02;;
25525;SDS011;13424;48.424;11.258;2022-09-14T14:37:41;3.90;;;0.90;;
25525;SDS011;13424;48.424;11.258;2022-09-14T14:40:11;5.35;;;1.00;;
25525;SDS011;13424;48.424;11.258;2022-09-14T14:42:37;4.53;;;1.20;;
25525;SDS011;13424;48.424;11.258;2022-09-14T14:45:14;3.90;;;1.52;;
25525;SDS011;13424;48.424;11.258;2022-09-14T14:47:47;3.85;;;1.45;;
25525;SDS011;13424;48.424;11.258;2022-09-14T14:50:19;3.85;;;1.42;;
25525;SDS011;13424;48.424;11.258;2022-09-14T14:52:48;7.60;;;2.35;;
25525;SDS011;13424;48.424;11.258;2022-09-14T14:55:16;5.00;;;1.70;;
25525;SDS011;13424;48.424;11.258;2022-09-14T14:57:46;5.53;;;2.35;;
25525;SDS011;13424;48.424;11.258;2022-09-14T15:00:16;4.00;;;2.13;;
25525;SDS011;13424;48.424;11.258;2022-09-14T15:02:45;3.22;;;2.17;;
25525;SDS011;13424;48.424;11.258;2022-09-14T15:05:12;6.03;;;2.30;;
25525;SDS011;13424;48.424;11.258;2022-09-14T15:07:38;7.53;;;2.42;;
25525;SDS011;13424;48.424;11.258;2022-09-14T15:10:05;11.73;;;3.83;;
25525;SDS011;13424;48.424;11.258;2022-09-14T15:12:34;9.80;;;2.80;;
25525;SDS011;13424;48.424;11.258;2022-09-14T15:15:00;6.20;;;3.30;;
25525;SDS011;13424;48.424;11.258;2022-09-14T15:17:26;7.40;;;2.67;;
25525;SDS011;13424;48.424;11.258;2022-09-14T15:19:52;10.15;;;3.60;;
25525;SDS011;13424;48.424;11.258;2022-09-14T15:22:18;3.80;;;2.97;;
25525;SDS011;13424;48.424;11.258;2022-09-14T15:24:44;5.13;;;2.85;;
25525;SDS011;13424;48.424;11.258;2022-09-14T15:27:11;6.03;;;2.88;;
25525;SDS011;13424;48.424;11.258;2022-09-14T15:29:37;5.18;;;3.40;;
25525;SDS011;13424;48.424;11.258;2022-09-14T15:32:03;5.43;;;3.10;;
25525;SDS011;13424;48.424;11.258;2022-09-14T15:34:29;4.28;;;3.33;;
25525;SDS011;13424;48.424;11.258;2022-09-14T15:36:55;8.20;;;3.95;;
25525;SDS011;13424;48.424;11.258;2022-09-14T15:39:27;6.78;;;3.88;;
25525;SDS011;13424;48.424;11.258;2022-09-14T15:45:20;4.38;;;3.25;;
25525;SDS011;13424;48.424;11.258;2022-09-14T15:47:46;8.07;;;3.45;;
25525;SDS011;13424;48.424;11.258;2022-09-14T15:50:12;7.43;;;3.38;;
25525;SDS011;13424;48.424;11.258;2022-09-14T15:53:04;10.43;;;3.42;;
25525;SDS011;13424;48.424;11.258;2022-09-14T15:55:30;6.75;;;3.85;;
25525;SDS011;13424;48.424;11.258;2022-09-14T15:57:55;12.65;;;3.20;;
25525;SDS011;13424;48.424;11.258;2022-09-14T16:04:09;6.13;;;2.97;;
25525;SDS011;13424;48.424;11.258;2022-09-14T16:06:35;5.95;;;3.45;;
25525;SDS011;13424;48.424;11.258;2022-09-14T16:09:03;4.50;;;3.67;;
25525;SDS011;13424;48.424;11.258;2022-09-14T16:11:34;8.43;;;3.80;;
25525;SDS011;13424;48.424;11.258;2022-09-14T16:14:01;9.65;;;3.67;;
25525;SDS011;13424;48.424;11.258;2022-09-14T16:16:30;5.18;;;3.65;;
25525;SDS011;13424;48.424;11.258;2022-09-14T16:18:57;5.47;;;3.33;;
25525;SDS011;13424;48.424;11.258;2022-09-14T16:21:27;4.65;;;3.30;;
25525;SDS011;13424;48.424;11.258;2022-09-14T16:27:48;4.97;;;3.55;;
25525;SDS011;13424;48.424;11.258;2022-09-14T16:30:48;8.88;;;3.22;;
25525;SDS011;13424;48.424;11.258;2022-09-14T16:33:14;5.72;;;3.33;;
25525;SDS011;13424;48.424;11.258;2022-09-14T16:35:40;6.53;;;3.95;;
25525;SDS011;13424;48.424;11.258;2022-09-14T16:38:06;3.78;;;2.90;;
25525;SDS011;13424;48.424;11.258;2022-09-14T16:40:32;4.80;;;2.42;;
25525;SDS011;13424;48.424;11.258;2022-09-14T16:42:58;7.07;;;2.97;;
25525;SDS011;13424;48.424;11.258;2022-09-14T16:45:25;8.85;;;3.38;;
25525;SDS011;13424;48.424;11.258;2022-09-14T16:51:38;6.70;;;2.97;;
25525;SDS011;13424;48.424;11.258;2022-09-14T16:54:04;4.18;;;3.03;;
25525;SDS011;13424;48.424;11.258;2022-09-14T16:56:33;3.40;;;2.90;;
25525;SDS011;13424;48.424;11.258;2022-09-14T16:59:02;5.78;;;3.42;;
25525;SDS011;13424;48.424;11.258;2022-09-14T17:01:37;3.70;;;3.00;;
25525;SDS011;13424;48.424;11.258;2022-09-14T17:04:08;7.68;;;3.55;;
25525;SDS011;13424;48.424;11.258;2022-09-14T17:06:43;6.07;;;3.97;;
25525;SDS011;13424;48.424;11.258;2022-09-14T17:09:21;4.45;;;3.13;;
25525;SDS011;13424;48.424;11.258;2022-09-14T17:11:51;3.65;;;3.35;;
25525;SDS011;13424;48.424;11.258;2022-09-14T17:14:23;6.22;;;3.20;;
25525;SDS011;13424;48.424;11.258;2022-09-14T17:16:55;6.28;;;3.00;;
25525;SDS011;13424;48.424;11.258;2022-09-14T17:19:23;5.43;;;3.55;;
25525;SDS011;13424;48.424;11.258;2022-09-14T17:21:49;4.15;;;3.60;;
25525;SDS011;13424;48.424;11.258;2022-09-14T17:24:16;7.50;;;3.10;;
25525;SDS011;13424;48.424;11.258;2022-09-14T17:26:44;4.10;;;3.35;;
25525;SDS011;13424;48.424;11.258;2022-09-14T17:29:11;5.05;;;3.22;;
25525;SDS011;13424;48.424;11.258;2022-09-14T17:31:39;5.93;;;3.50;;
25525;SDS011;13424;48.424;11.258;2022-09-14T17:34:09;6.38;;;3.05;;
25525;SDS011;13424;48.424;11.258;2022-09-14T17:36:37;8.40;;;4.07;;
25525;SDS011;13424;48.424;11.258;2022-09-14T17:39:04;3.63;;;3.00;;
25525;SDS011;13424;48.424;11.258;2022-09-14T17:41:31;4.57;;;2.90;;
25525;SDS011;13424;48.424;11.258;2022-09-14T17:44:00;5.63;;;3.05;;
25525;SDS011;13424;48.424;11.258;2022-09-14T17:46:46;5.57;;;3.35;;
25525;SDS011;13424;48.424;11.258;2022-09-14T17:49:13;6.95;;;2.80;;
25525;SDS011;13424;48.424;11.258;2022-09-14T17:51:40;3.83;;;3.08;;
25525;SDS011;13424;48.424;11.258;2022-09-14T17:54:06;3.17;;;2.88;;
25525;SDS011;13424;48.424;11.258;2022-09-14T17:56:32;4.57;;;2.92;;
25525;SDS011;13424;48.424;11.258;2022-09-14T17:59:01;4.72;;;2.83;;
25525;SDS011;13424;48.424;11.258;2022-09-14T18:02:19;5.32;;;3.40;;
25525;SDS011;13424;48.424;11.258;2022-09-14T18:04:45;3.95;;;2.90;;
25525;SDS011;13424;48.424;11.258;2022-09-14T18:07:12;5.55;;;3.03;;
25525;SDS011;13424;48.424;11.258;2022-09-14T18:09:38;3.70;;;2.67;;
25525;SDS011;13424;48.424;11.258;2022-09-14T18:12:04;6.10;;;3.58;;
25525;SDS011;13424;48.424;11.258;2022-09-14T18:14:31;3.53;;;2.75;;
25525;SDS011;13424;48.424;11.258;2022-09-14T18:16:57;5.43;;;2.72;;
25525;SDS011;13424;48.424;11.258;2022-09-14T18:19:24;4.68;;;2.78;;
25525;SDS011;13424;48.424;11.258;2022-09-14T18:25:44;4.22;;;2.95;;
25525;SDS011;13424;48.424;11.258;2022-09-14T18:28:10;5.97;;;2.92;;
25525;SDS011;13424;48.424;11.258;2022-09-14T18:30:36;4.80;;;2.53;;